sensor_id;sensor_type;location;lat;lon;timestamp;P1;durP1;ratioP1;P2;durP2;ratioP2
16890;SDS011;8562;52.246;20.966;2022-11-23T00:01:26;20.10;;;9.17;;
16890;SDS011;8562;52.246;20.966;2022-11-23T00:03:54;31.50;;;10.17;;
16890;SDS011;8562;52.246;20.966;2022-11-23T00:06:21;24.87;;;12.07;;
16890;SDS011;8562;52.246;20.966;2022-11-23T00:08:48;24.53;;;10.03;;
16890;SDS011;8562;52.246;20.966;2022-11-23T00:11:14;18.13;;;10.03;;
16890;SDS011;8562;52.246;20.966;2022-11-23T00:13:40;36.37;;;11.43;;
16890;SDS011;8562;52.246;20.966;2022-11-23T00:16:07;16.33;;;7.87;;
16890;SDS011;8562;52.246;20.966;2022-11-23T00:18:33;23.40;;;11.70;;
16890;SDS011;8562;52.246;20.966;2022-11-23T00:21:04;27.47;;;10.40;;
16890;SDS011;8562;52.246;20.966;2022-11-23T00:23:30;26.73;;;10.47;;
16890;SDS011;8562;52.246;20.966;2022-11-23T00:25:56;26.43;;;12.00;;
16890;SDS011;8562;52.246;20.966;2022-11-23T00:28:22;29.20;;;11.00;;
16890;SDS011;8562;52.246;20.966;2022-11-23T00:30:49;19.47;;;9.10;;
16890;SDS011;8562;52.246;20.966;2022-11-23T00:33:15;24.27;;;11.17;;
16890;SDS011;8562;52.246;20.966;2022-11-23T00:35:42;23.37;;;10.30;;
16890;SDS011;8562;52.246;20.966;2022-11-23T00:38:08;27.83;;;11.10;;
16890;SDS011;8562;52.246;20.966;2022-11-23T00:40:34;21.60;;;10.17;;
16890;SDS011;8562;52.246;20.966;2022-11-23T00:43:01;16.87;;;9.27;;
16890;SDS011;8562;52.246;20.966;2022-11-23T00:45:28;20.27;;;8.43;;
16890;SDS011;8562;52.246;20.966;2022-11-23T00:47:54;17.47;;;7.63;;
16890;SDS011;8562;52.246;20.966;2022-11-23T00:50:20;26.33;;;9.70;;
16890;SDS011;8562;52.246;20.966;2022-11-23T00:52:49;24.20;;;10.40;;
16890;SDS011;8562;52.246;20.966;2022-11-23T00:55:16;25.13;;;11.57;;
16890;SDS011;8562;52.246;20.966;2022-11-23T00:57:42;19.93;;;10.60;;
16890;SDS011;8562;52.246;20.966;2022-11-23T01:00:08;19.83;;;9.17;;
16890;SDS011;8562;52.246;20.966;2022-11-23T01:02:36;24.57;;;11.07;;
16890;SDS011;8562;52.246;20.966;2022-11-23T01:05:02;22.37;;;10.10;;
16890;SDS011;8562;52.246;20.966;2022-11-23T01:07:28;19.27;;;9.97;;
16890;SDS011;8562;52.246;20.966;2022-11-23T01:09:56;27.57;;;12.57;;
16890;SDS011;8562;52.246;20.966;2022-11-23T01:12:22;19.43;;;9.23;;
16890;SDS011;8562;52.246;20.966;2022-11-23T01:14:48;25.07;;;10.50;;
16890;SDS011;8562;52.246;20.966;2022-11-23T01:17:14;16.30;;;8.70;;
16890;SDS011;8562;52.246;20.966;2022-11-23T01:19:40;29.23;;;9.87;;
16890;SDS011;8562;52.246;20.966;2022-11-23T01:22:06;20.37;;;9.13;;
16890;SDS011;8562;52.246;20.966;2022-11-23T01:24:32;25.20;;;11.13;;
16890;SDS011;8562;52.246;20.966;2022-11-23T01:26:58;31.97;;;11.87;;
16890;SDS011;8562;52.246;20.966;2022-11-23T01:29:26;27.83;;;9.67;;
16890;SDS011;8562;52.246;20.966;2022-11-23T01:31:52;19.83;;;9.90;;
16890;SDS011;8562;52.246;20.966;2022-11-23T01:34:19;17.07;;;9.00;;
16890;SDS011;8562;52.246;20.966;2022-11-23T01:36:45;26.77;;;12.47;;
16890;SDS011;8562;52.246;20.966;2022-11-23T01:39:12;25.47;;;10.07;;
16890;SDS011;8562;52.246;20.966;2022-11-23T01:41:39;18.93;;;8.20;;
16890;SDS011;8562;52.246;20.966;2022-11-23T01:46:53;27.57;;;10.10;;
16890;SDS011;8562;52.246;20.966;2022-11-23T01:49:20;23.80;;;12.37;;
16890;SDS011;8562;52.246;20.966;2022-11-23T01:51:48;21.23;;;9.67;;
16890;SDS011;8562;52.246;20.966;2022-11-23T01:54:21;24.03;;;9.40;;
16890;SDS011;8562;52.246;20.966;2022-11-23T01:56:51;23.57;;;10.43;;
16890;SDS011;8562;52.246;20.966;2022-11-23T01:59:18;17.37;;;9.70;;
16890;SDS011;8562;52.246;20.966;2022-11-23T02:01:44;25.73;;;9.70;;
16890;SDS011;8562;52.246;20.966;2022-11-23T02:04:12;20.10;;;8.53;;
16890;SDS011;8562;52.246;20.966;2022-11-23T02:06:43;17.93;;;8.00;;
16890;SDS011;8562;52.246;20.966;2022-11-23T02:09:11;21.00;;;10.57;;
16890;SDS011;8562;52.246;20.966;2022-11-23T02:11:37;13.93;;;6.97;;
16890;SDS011;8562;52.246;20.966;2022-11-23T02:14:03;11.97;;;4.20;;
16890;SDS011;8562;52.246;20.966;2022-11-23T02:16:29;18.47;;;9.07;;
16890;SDS011;8562;52.246;20.966;2022-11-23T02:18:56;16.83;;;8.47;;
16890;SDS011;8562;52.246;20.966;2022-11-23T02:21:22;17.93;;;9.07;;
16890;SDS011;8562;52.246;20.966;2022-11-23T02:23:51;13.40;;;8.63;;
16890;SDS011;8562;52.246;20.966;2022-11-23T02:28:52;14.77;;;8.70;;
16890;SDS011;8562;52.246;20.966;2022-11-23T02:31:19;16.77;;;8.57;;
16890;SDS011;8562;52.246;20.966;2022-11-23T02:33:45;24.80;;;9.57;;
16890;SDS011;8562;52.246;20.966;2022-11-23T02:38:46;18.07;;;8.97;;
16890;SDS011;8562;52.246;20.966;2022-11-23T02:41:13;20.90;;;9.00;;
16890;SDS011;8562;52.246;20.966;2022-11-23T02:43:39;27.87;;;8.50;;
16890;SDS011;8562;52.246;20.966;2022-11-23T02:46:05;19.43;;;12.33;;
16890;SDS011;8562;52.246;20.966;2022-11-23T02:48:31;14.60;;;6.13;;
16890;SDS011;8562;52.246;20.966;2022-11-23T02:51:02;15.00;;;9.23;;
16890;SDS011;8562;52.246;20.966;2022-11-23T02:53:30;19.17;;;8.33;;
16890;SDS011;8562;52.246;20.966;2022-11-23T02:55:56;22.37;;;9.37;;
16890;SDS011;8562;52.246;20.966;2022-11-23T02:58:23;16.97;;;8.80;;
16890;SDS011;8562;52.246;20.966;2022-11-23T03:00:49;17.67;;;9.30;;
16890;SDS011;8562;52.246;20.966;2022-11-23T03:03:18;23.33;;;8.70;;
16890;SDS011;8562;52.246;20.966;2022-11-23T03:05:44;19.50;;;9.23;;
16890;SDS011;8562;52.246;20.966;2022-11-23T03:08:10;19.43;;;8.97;;
16890;SDS011;8562;52.246;20.966;2022-11-23T03:10:38;24.47;;;8.87;;
16890;SDS011;8562;52.246;20.966;2022-11-23T03:13:04;16.00;;;8.47;;
16890;SDS011;8562;52.246;20.966;2022-11-23T03:15:33;22.20;;;10.93;;
16890;SDS011;8562;52.246;20.966;2022-11-23T03:18:02;17.50;;;9.30;;
16890;SDS011;8562;52.246;20.966;2022-11-23T03:20:30;21.37;;;10.53;;
16890;SDS011;8562;52.246;20.966;2022-11-23T03:22:56;19.83;;;9.67;;
16890;SDS011;8562;52.246;20.966;2022-11-23T03:25:23;21.00;;;9.37;;
16890;SDS011;8562;52.246;20.966;2022-11-23T03:27:52;19.03;;;8.00;;
16890;SDS011;8562;52.246;20.966;2022-11-23T03:30:19;27.30;;;12.00;;
16890;SDS011;8562;52.246;20.966;2022-11-23T03:32:46;18.93;;;9.70;;
16890;SDS011;8562;52.246;20.966;2022-11-23T03:35:13;23.07;;;9.30;;
16890;SDS011;8562;52.246;20.966;2022-11-23T03:38:05;32.87;;;10.27;;
16890;SDS011;8562;52.246;20.966;2022-11-23T03:40:31;22.93;;;10.20;;
16890;SDS011;8562;52.246;20.966;2022-11-23T03:43:12;19.30;;;8.77;;
16890;SDS011;8562;52.246;20.966;2022-11-23T03:45:38;15.33;;;8.00;;
16890;SDS011;8562;52.246;20.966;2022-11-23T03:48:04;29.57;;;9.80;;
16890;SDS011;8562;52.246;20.966;2022-11-23T03:50:30;31.63;;;10.97;;
16890;SDS011;8562;52.246;20.966;2022-11-23T03:52:56;23.73;;;8.97;;
16890;SDS011;8562;52.246;20.966;2022-11-23T03:55:24;25.33;;;10.93;;
16890;SDS011;8562;52.246;20.966;2022-11-23T03:57:51;19.93;;;8.73;;
16890;SDS011;8562;52.246;20.966;2022-11-23T04:00:28;23.33;;;8.70;;
16890;SDS011;8562;52.246;20.966;2022-11-23T04:02:54;15.53;;;9.27;;
16890;SDS011;8562;52.246;20.966;2022-11-23T04:05:50;22.27;;;9.47;;
16890;SDS011;8562;52.246;20.966;2022-11-23T04:08:35;23.00;;;9.27;;
16890;SDS011;8562;52.246;20.966;2022-11-23T04:11:06;17.40;;;7.87;;
16890;SDS011;8562;52.246;20.966;2022-11-23T04:13:37;17.00;;;8.27;;
16890;SDS011;8562;52.246;20.966;2022-11-23T04:16:03;16.30;;;8.67;;
16890;SDS011;8562;52.246;20.966;2022-11-23T04:18:32;17.93;;;7.70;;
16890;SDS011;8562;52.246;20.966;2022-11-23T04:20:59;19.23;;;10.73;;
16890;SDS011;8562;52.246;20.966;2022-11-23T04:23:25;13.37;;;7.23;;
16890;SDS011;8562;52.246;20.966;2022-11-23T04:25:52;21.27;;;9.20;;
16890;SDS011;8562;52.246;20.966;2022-11-23T04:28:18;15.93;;;7.37;;
16890;SDS011;8562;52.246;20.966;2022-11-23T04:30:47;13.07;;;7.23;;
16890;SDS011;8562;52.246;20.966;2022-11-23T04:33:13;13.83;;;7.77;;
16890;SDS011;8562;52.246;20.966;2022-11-23T04:35:41;17.77;;;7.93;;
16890;SDS011;8562;52.246;20.966;2022-11-23T04:38:07;25.53;;;8.73;;
16890;SDS011;8562;52.246;20.966;2022-11-23T04:40:35;21.20;;;7.37;;
16890;SDS011;8562;52.246;20.966;2022-11-23T04:43:02;24.43;;;10.13;;
16890;SDS011;8562;52.246;20.966;2022-11-23T04:45:32;23.97;;;11.37;;
16890;SDS011;8562;52.246;20.966;2022-11-23T04:48:03;13.27;;;6.97;;
16890;SDS011;8562;52.246;20.966;2022-11-23T04:50:31;13.80;;;6.23;;
16890;SDS011;8562;52.246;20.966;2022-11-23T04:52:58;12.83;;;8.13;;
16890;SDS011;8562;52.246;20.966;2022-11-23T04:55:33;16.40;;;8.40;;
16890;SDS011;8562;52.246;20.966;2022-11-23T04:58:00;18.63;;;7.87;;
16890;SDS011;8562;52.246;20.966;2022-11-23T05:00:29;12.40;;;7.80;;
16890;SDS011;8562;52.246;20.966;2022-11-23T05:02:58;14.57;;;6.43;;
16890;SDS011;8562;52.246;20.966;2022-11-23T05:05:27;20.97;;;8.03;;
16890;SDS011;8562;52.246;20.966;2022-11-23T05:07:55;18.07;;;9.20;;
16890;SDS011;8562;52.246;20.966;2022-11-23T05:10:25;9.77;;;6.27;;
16890;SDS011;8562;52.246;20.966;2022-11-23T05:12:55;10.83;;;5.90;;
16890;SDS011;8562;52.246;20.966;2022-11-23T05:15:21;12.97;;;5.93;;
16890;SDS011;8562;52.246;20.966;2022-11-23T05:17:47;14.73;;;6.83;;
16890;SDS011;8562;52.246;20.966;2022-11-23T05:20:21;11.67;;;5.70;;
16890;SDS011;8562;52.246;20.966;2022-11-23T05:22:48;11.57;;;6.63;;
16890;SDS011;8562;52.246;20.966;2022-11-23T05:25:18;10.43;;;6.07;;
16890;SDS011;8562;52.246;20.966;2022-11-23T05:27:49;11.87;;;6.70;;
16890;SDS011;8562;52.246;20.966;2022-11-23T05:30:15;11.93;;;4.60;;
16890;SDS011;8562;52.246;20.966;2022-11-23T05:32:42;11.03;;;8.07;;
16890;SDS011;8562;52.246;20.966;2022-11-23T05:35:08;16.97;;;6.87;;
16890;SDS011;8562;52.246;20.966;2022-11-23T05:37:36;12.23;;;5.97;;
16890;SDS011;8562;52.246;20.966;2022-11-23T05:40:06;11.87;;;7.27;;
16890;SDS011;8562;52.246;20.966;2022-11-23T05:42:33;13.87;;;6.70;;
16890;SDS011;8562;52.246;20.966;2022-11-23T05:45:08;6.83;;;5.20;;
16890;SDS011;8562;52.246;20.966;2022-11-23T05:47:39;13.10;;;6.23;;
16890;SDS011;8562;52.246;20.966;2022-11-23T05:50:15;18.13;;;7.67;;
16890;SDS011;8562;52.246;20.966;2022-11-23T05:52:44;12.30;;;5.70;;
16890;SDS011;8562;52.246;20.966;2022-11-23T05:55:10;8.87;;;5.37;;
16890;SDS011;8562;52.246;20.966;2022-11-23T05:57:36;11.97;;;6.37;;
16890;SDS011;8562;52.246;20.966;2022-11-23T06:00:04;16.43;;;5.67;;
16890;SDS011;8562;52.246;20.966;2022-11-23T06:02:55;9.07;;;6.00;;
16890;SDS011;8562;52.246;20.966;2022-11-23T06:05:23;10.00;;;4.80;;
16890;SDS011;8562;52.246;20.966;2022-11-23T06:07:51;9.40;;;5.73;;
16890;SDS011;8562;52.246;20.966;2022-11-23T06:10:21;10.00;;;5.70;;
16890;SDS011;8562;52.246;20.966;2022-11-23T06:12:47;11.03;;;5.50;;
16890;SDS011;8562;52.246;20.966;2022-11-23T06:15:18;6.33;;;4.27;;
16890;SDS011;8562;52.246;20.966;2022-11-23T06:17:46;6.77;;;4.93;;
16890;SDS011;8562;52.246;20.966;2022-11-23T06:20:17;6.17;;;3.80;;
16890;SDS011;8562;52.246;20.966;2022-11-23T06:22:51;10.07;;;4.70;;
16890;SDS011;8562;52.246;20.966;2022-11-23T06:25:19;9.27;;;3.50;;
16890;SDS011;8562;52.246;20.966;2022-11-23T06:28:08;9.03;;;5.53;;
16890;SDS011;8562;52.246;20.966;2022-11-23T06:30:41;11.70;;;6.33;;
16890;SDS011;8562;52.246;20.966;2022-11-23T06:33:07;11.90;;;6.33;;
16890;SDS011;8562;52.246;20.966;2022-11-23T06:35:40;10.53;;;6.57;;
16890;SDS011;8562;52.246;20.966;2022-11-23T06:38:06;10.87;;;6.13;;
16890;SDS011;8562;52.246;20.966;2022-11-23T06:40:33;10.13;;;5.10;;
16890;SDS011;8562;52.246;20.966;2022-11-23T06:42:59;13.20;;;6.30;;
16890;SDS011;8562;52.246;20.966;2022-11-23T06:45:36;9.83;;;5.03;;
16890;SDS011;8562;52.246;20.966;2022-11-23T06:48:07;9.00;;;5.67;;
16890;SDS011;8562;52.246;20.966;2022-11-23T06:50:39;8.33;;;4.80;;
16890;SDS011;8562;52.246;20.966;2022-11-23T06:53:05;14.03;;;6.80;;
16890;SDS011;8562;52.246;20.966;2022-11-23T06:55:39;10.17;;;6.27;;
16890;SDS011;8562;52.246;20.966;2022-11-23T06:58:06;10.60;;;5.93;;
16890;SDS011;8562;52.246;20.966;2022-11-23T07:00:33;12.93;;;5.10;;
16890;SDS011;8562;52.246;20.966;2022-11-23T07:03:00;9.93;;;5.77;;
16890;SDS011;8562;52.246;20.966;2022-11-23T07:05:33;14.13;;;6.07;;
16890;SDS011;8562;52.246;20.966;2022-11-23T07:07:59;14.17;;;7.40;;
16890;SDS011;8562;52.246;20.966;2022-11-23T07:10:26;14.77;;;6.60;;
16890;SDS011;8562;52.246;20.966;2022-11-23T07:13:02;8.53;;;5.23;;
16890;SDS011;8562;52.246;20.966;2022-11-23T07:15:29;11.20;;;5.77;;
16890;SDS011;8562;52.246;20.966;2022-11-23T07:17:55;10.77;;;6.13;;
16890;SDS011;8562;52.246;20.966;2022-11-23T07:20:23;6.60;;;3.53;;
16890;SDS011;8562;52.246;20.966;2022-11-23T07:23:02;15.67;;;5.80;;
16890;SDS011;8562;52.246;20.966;2022-11-23T07:25:29;9.30;;;5.17;;
16890;SDS011;8562;52.246;20.966;2022-11-23T07:27:58;12.37;;;5.63;;
16890;SDS011;8562;52.246;20.966;2022-11-23T07:30:25;15.60;;;5.80;;
16890;SDS011;8562;52.246;20.966;2022-11-23T07:32:52;12.13;;;4.77;;
16890;SDS011;8562;52.246;20.966;2022-11-23T07:35:19;11.10;;;5.33;;
16890;SDS011;8562;52.246;20.966;2022-11-23T07:37:45;8.30;;;6.70;;
16890;SDS011;8562;52.246;20.966;2022-11-23T07:40:12;13.73;;;6.43;;
16890;SDS011;8562;52.246;20.966;2022-11-23T07:42:39;8.67;;;5.20;;
16890;SDS011;8562;52.246;20.966;2022-11-23T07:45:05;9.43;;;7.17;;
16890;SDS011;8562;52.246;20.966;2022-11-23T07:47:34;12.67;;;5.07;;
16890;SDS011;8562;52.246;20.966;2022-11-23T07:50:00;11.60;;;5.57;;
16890;SDS011;8562;52.246;20.966;2022-11-23T07:52:26;19.77;;;8.10;;
16890;SDS011;8562;52.246;20.966;2022-11-23T07:54:53;9.30;;;6.67;;
16890;SDS011;8562;52.246;20.966;2022-11-23T07:57:19;10.40;;;6.77;;
16890;SDS011;8562;52.246;20.966;2022-11-23T07:59:45;11.80;;;6.97;;
16890;SDS011;8562;52.246;20.966;2022-11-23T08:02:11;8.27;;;3.37;;
16890;SDS011;8562;52.246;20.966;2022-11-23T08:04:39;8.40;;;4.10;;
16890;SDS011;8562;52.246;20.966;2022-11-23T08:07:05;8.10;;;5.43;;
16890;SDS011;8562;52.246;20.966;2022-11-23T08:09:31;11.97;;;6.53;;
16890;SDS011;8562;52.246;20.966;2022-11-23T08:11:57;6.30;;;4.17;;
16890;SDS011;8562;52.246;20.966;2022-11-23T08:14:24;8.67;;;6.03;;
16890;SDS011;8562;52.246;20.966;2022-11-23T08:16:50;12.67;;;6.00;;
16890;SDS011;8562;52.246;20.966;2022-11-23T08:19:16;17.13;;;7.30;;
16890;SDS011;8562;52.246;20.966;2022-11-23T08:21:43;10.23;;;6.30;;
16890;SDS011;8562;52.246;20.966;2022-11-23T08:24:09;10.57;;;6.87;;
16890;SDS011;8562;52.246;20.966;2022-11-23T08:26:35;8.50;;;5.03;;
16890;SDS011;8562;52.246;20.966;2022-11-23T08:29:02;15.53;;;7.17;;
16890;SDS011;8562;52.246;20.966;2022-11-23T08:31:28;14.17;;;8.07;;
16890;SDS011;8562;52.246;20.966;2022-11-23T08:33:54;14.77;;;6.67;;
16890;SDS011;8562;52.246;20.966;2022-11-23T08:36:21;11.33;;;7.53;;
16890;SDS011;8562;52.246;20.966;2022-11-23T08:38:47;13.30;;;8.23;;
16890;SDS011;8562;52.246;20.966;2022-11-23T08:41:15;15.73;;;8.00;;
16890;SDS011;8562;52.246;20.966;2022-11-23T08:43:45;12.07;;;6.70;;
16890;SDS011;8562;52.246;20.966;2022-11-23T08:46:11;16.47;;;9.97;;
16890;SDS011;8562;52.246;20.966;2022-11-23T08:48:37;17.63;;;8.67;;
16890;SDS011;8562;52.246;20.966;2022-11-23T08:51:03;7.20;;;5.13;;
16890;SDS011;8562;52.246;20.966;2022-11-23T08:53:29;8.47;;;4.20;;
16890;SDS011;8562;52.246;20.966;2022-11-23T08:55:58;10.70;;;6.23;;
16890;SDS011;8562;52.246;20.966;2022-11-23T08:58:25;12.67;;;8.83;;
16890;SDS011;8562;52.246;20.966;2022-11-23T09:00:51;9.00;;;5.70;;
16890;SDS011;8562;52.246;20.966;2022-11-23T09:03:17;10.67;;;4.63;;
16890;SDS011;8562;52.246;20.966;2022-11-23T09:05:43;11.50;;;5.10;;
16890;SDS011;8562;52.246;20.966;2022-11-23T09:08:09;8.63;;;5.50;;
16890;SDS011;8562;52.246;20.966;2022-11-23T09:10:36;11.03;;;7.40;;
16890;SDS011;8562;52.246;20.966;2022-11-23T09:13:02;12.40;;;6.73;;
16890;SDS011;8562;52.246;20.966;2022-11-23T09:15:28;10.67;;;6.47;;
16890;SDS011;8562;52.246;20.966;2022-11-23T09:17:55;7.33;;;4.63;;
16890;SDS011;8562;52.246;20.966;2022-11-23T09:20:21;13.03;;;6.43;;
16890;SDS011;8562;52.246;20.966;2022-11-23T09:22:51;10.40;;;6.17;;
16890;SDS011;8562;52.246;20.966;2022-11-23T09:25:17;11.57;;;5.27;;
16890;SDS011;8562;52.246;20.966;2022-11-23T09:27:44;10.10;;;6.83;;
16890;SDS011;8562;52.246;20.966;2022-11-23T09:30:10;6.73;;;4.53;;
16890;SDS011;8562;52.246;20.966;2022-11-23T09:32:36;9.63;;;6.50;;
16890;SDS011;8562;52.246;20.966;2022-11-23T09:35:02;8.23;;;5.87;;
16890;SDS011;8562;52.246;20.966;2022-11-23T09:37:29;10.67;;;5.87;;
16890;SDS011;8562;52.246;20.966;2022-11-23T09:39:55;7.00;;;4.63;;
16890;SDS011;8562;52.246;20.966;2022-11-23T09:42:26;20.63;;;6.10;;
16890;SDS011;8562;52.246;20.966;2022-11-23T09:50:02;10.73;;;7.13;;
16890;SDS011;8562;52.246;20.966;2022-11-23T09:52:39;9.43;;;5.47;;
16890;SDS011;8562;52.246;20.966;2022-11-23T09:57:42;12.03;;;4.53;;
16890;SDS011;8562;52.246;20.966;2022-11-23T10:00:17;9.30;;;5.27;;
16890;SDS011;8562;52.246;20.966;2022-11-23T10:02:45;14.53;;;5.77;;
16890;SDS011;8562;52.246;20.966;2022-11-23T10:05:16;9.67;;;5.00;;
16890;SDS011;8562;52.246;20.966;2022-11-23T10:12:42;10.30;;;6.20;;
16890;SDS011;8562;52.246;20.966;2022-11-23T10:20:16;12.37;;;5.33;;
16890;SDS011;8562;52.246;20.966;2022-11-23T10:25:13;12.23;;;5.93;;
16890;SDS011;8562;52.246;20.966;2022-11-23T10:27:40;13.47;;;8.40;;
16890;SDS011;8562;52.246;20.966;2022-11-23T10:30:11;9.93;;;4.73;;
16890;SDS011;8562;52.246;20.966;2022-11-23T10:32:39;10.30;;;4.63;;
16890;SDS011;8562;52.246;20.966;2022-11-23T10:38:12;9.70;;;6.00;;
16890;SDS011;8562;52.246;20.966;2022-11-23T10:40:40;9.57;;;5.93;;
16890;SDS011;8562;52.246;20.966;2022-11-23T10:43:14;14.43;;;7.23;;
16890;SDS011;8562;52.246;20.966;2022-11-23T10:45:41;10.13;;;5.70;;
16890;SDS011;8562;52.246;20.966;2022-11-23T10:48:08;10.80;;;6.17;;
16890;SDS011;8562;52.246;20.966;2022-11-23T10:50:35;12.83;;;6.67;;
16890;SDS011;8562;52.246;20.966;2022-11-23T10:55:33;12.17;;;6.70;;
16890;SDS011;8562;52.246;20.966;2022-11-23T10:58:22;8.53;;;4.80;;
16890;SDS011;8562;52.246;20.966;2022-11-23T11:00:57;11.47;;;5.90;;
16890;SDS011;8562;52.246;20.966;2022-11-23T11:03:23;8.47;;;5.77;;
16890;SDS011;8562;52.246;20.966;2022-11-23T11:05:49;8.80;;;5.90;;
16890;SDS011;8562;52.246;20.966;2022-11-23T11:08:17;11.97;;;7.70;;
16890;SDS011;8562;52.246;20.966;2022-11-23T11:11:00;12.67;;;7.30;;
16890;SDS011;8562;52.246;20.966;2022-11-23T11:13:30;11.63;;;8.23;;
16890;SDS011;8562;52.246;20.966;2022-11-23T11:18:24;16.37;;;8.87;;
16890;SDS011;8562;52.246;20.966;2022-11-23T11:20:54;10.63;;;5.93;;
16890;SDS011;8562;52.246;20.966;2022-11-23T11:23:21;8.40;;;5.63;;
16890;SDS011;8562;52.246;20.966;2022-11-23T11:25:48;11.33;;;6.87;;
16890;SDS011;8562;52.246;20.966;2022-11-23T11:30:58;10.50;;;6.17;;
16890;SDS011;8562;52.246;20.966;2022-11-23T11:33:36;15.13;;;7.57;;
16890;SDS011;8562;52.246;20.966;2022-11-23T11:36:07;9.47;;;6.07;;
16890;SDS011;8562;52.246;20.966;2022-11-23T11:38:33;8.87;;;6.67;;
16890;SDS011;8562;52.246;20.966;2022-11-23T11:41:07;13.83;;;7.60;;
16890;SDS011;8562;52.246;20.966;2022-11-23T11:43:44;8.20;;;5.70;;
16890;SDS011;8562;52.246;20.966;2022-11-23T11:46:17;9.20;;;5.93;;
16890;SDS011;8562;52.246;20.966;2022-11-23T11:48:46;10.37;;;6.43;;
16890;SDS011;8562;52.246;20.966;2022-11-23T11:51:16;14.53;;;6.77;;
16890;SDS011;8562;52.246;20.966;2022-11-23T11:54:09;10.97;;;6.93;;
16890;SDS011;8562;52.246;20.966;2022-11-23T11:56:35;9.63;;;6.80;;
16890;SDS011;8562;52.246;20.966;2022-11-23T11:59:13;10.10;;;5.77;;
16890;SDS011;8562;52.246;20.966;2022-11-23T12:01:43;7.43;;;5.10;;
16890;SDS011;8562;52.246;20.966;2022-11-23T12:04:14;10.00;;;6.80;;
16890;SDS011;8562;52.246;20.966;2022-11-23T12:06:45;8.80;;;5.50;;
16890;SDS011;8562;52.246;20.966;2022-11-23T12:09:16;11.70;;;6.23;;
16890;SDS011;8562;52.246;20.966;2022-11-23T12:11:43;14.60;;;6.93;;
16890;SDS011;8562;52.246;20.966;2022-11-23T12:14:11;8.77;;;5.73;;
16890;SDS011;8562;52.246;20.966;2022-11-23T12:19:38;14.17;;;6.70;;
16890;SDS011;8562;52.246;20.966;2022-11-23T12:30:40;11.70;;;6.77;;
16890;SDS011;8562;52.246;20.966;2022-11-23T12:33:00;15.30;;;8.70;;
16890;SDS011;8562;52.246;20.966;2022-11-23T12:35:51;11.97;;;6.20;;
16890;SDS011;8562;52.246;20.966;2022-11-23T12:43:31;13.17;;;7.67;;
16890;SDS011;8562;52.246;20.966;2022-11-23T12:51:20;10.37;;;7.70;;
16890;SDS011;8562;52.246;20.966;2022-11-23T12:59:18;11.47;;;6.17;;
16890;SDS011;8562;52.246;20.966;2022-11-23T13:01:55;12.97;;;7.27;;
16890;SDS011;8562;52.246;20.966;2022-11-23T13:22:03;15.50;;;7.27;;
16890;SDS011;8562;52.246;20.966;2022-11-23T13:24:31;17.47;;;8.37;;
16890;SDS011;8562;52.246;20.966;2022-11-23T13:34:59;15.10;;;9.37;;
16890;SDS011;8562;52.246;20.966;2022-11-23T13:37:25;15.07;;;8.87;;
16890;SDS011;8562;52.246;20.966;2022-11-23T13:42:23;18.30;;;7.47;;
16890;SDS011;8562;52.246;20.966;2022-11-23T13:45:11;12.03;;;7.10;;
16890;SDS011;8562;52.246;20.966;2022-11-23T13:47:35;15.23;;;6.93;;
16890;SDS011;8562;52.246;20.966;2022-11-23T13:50:08;16.90;;;8.90;;
16890;SDS011;8562;52.246;20.966;2022-11-23T13:52:49;15.43;;;7.93;;
16890;SDS011;8562;52.246;20.966;2022-11-23T13:55:19;13.30;;;7.20;;
16890;SDS011;8562;52.246;20.966;2022-11-23T13:58:34;12.37;;;7.77;;
16890;SDS011;8562;52.246;20.966;2022-11-23T14:05:58;16.60;;;9.60;;
16890;SDS011;8562;52.246;20.966;2022-11-23T14:08:25;23.63;;;10.57;;
16890;SDS011;8562;52.246;20.966;2022-11-23T14:10:52;20.60;;;10.13;;
16890;SDS011;8562;52.246;20.966;2022-11-23T14:13:20;16.07;;;9.87;;
16890;SDS011;8562;52.246;20.966;2022-11-23T14:15:55;14.60;;;8.97;;
16890;SDS011;8562;52.246;20.966;2022-11-23T14:26:45;15.57;;;9.20;;
16890;SDS011;8562;52.246;20.966;2022-11-23T14:29:16;15.13;;;8.20;;
16890;SDS011;8562;52.246;20.966;2022-11-23T14:34:27;16.10;;;7.73;;
16890;SDS011;8562;52.246;20.966;2022-11-23T14:39:39;13.73;;;8.33;;
16890;SDS011;8562;52.246;20.966;2022-11-23T14:42:10;10.27;;;6.37;;
16890;SDS011;8562;52.246;20.966;2022-11-23T14:44:38;14.50;;;8.60;;
16890;SDS011;8562;52.246;20.966;2022-11-23T14:47:06;21.30;;;10.33;;
16890;SDS011;8562;52.246;20.966;2022-11-23T14:49:33;16.80;;;7.97;;
16890;SDS011;8562;52.246;20.966;2022-11-23T14:52:00;18.57;;;8.93;;
16890;SDS011;8562;52.246;20.966;2022-11-23T14:54:26;19.73;;;9.73;;
16890;SDS011;8562;52.246;20.966;2022-11-23T14:56:55;16.33;;;7.90;;
16890;SDS011;8562;52.246;20.966;2022-11-23T14:59:23;15.37;;;9.30;;
16890;SDS011;8562;52.246;20.966;2022-11-23T15:01:55;13.27;;;7.53;;
16890;SDS011;8562;52.246;20.966;2022-11-23T15:06:48;22.30;;;9.37;;
16890;SDS011;8562;52.246;20.966;2022-11-23T15:09:19;20.50;;;10.47;;
16890;SDS011;8562;52.246;20.966;2022-11-23T15:11:48;19.43;;;8.10;;
16890;SDS011;8562;52.246;20.966;2022-11-23T15:14:18;19.53;;;8.73;;
16890;SDS011;8562;52.246;20.966;2022-11-23T15:16:44;15.73;;;9.43;;
16890;SDS011;8562;52.246;20.966;2022-11-23T15:19:46;27.00;;;10.83;;
16890;SDS011;8562;52.246;20.966;2022-11-23T15:22:10;16.53;;;7.67;;
16890;SDS011;8562;52.246;20.966;2022-11-23T15:24:37;21.63;;;10.73;;
16890;SDS011;8562;52.246;20.966;2022-11-23T15:27:03;16.07;;;9.67;;
16890;SDS011;8562;52.246;20.966;2022-11-23T15:29:33;20.97;;;10.90;;
16890;SDS011;8562;52.246;20.966;2022-11-23T15:32:01;24.43;;;10.20;;
16890;SDS011;8562;52.246;20.966;2022-11-23T15:34:27;22.33;;;11.07;;
16890;SDS011;8562;52.246;20.966;2022-11-23T15:36:54;18.90;;;9.67;;
16890;SDS011;8562;52.246;20.966;2022-11-23T15:39:21;23.30;;;13.67;;
16890;SDS011;8562;52.246;20.966;2022-11-23T15:41:48;20.20;;;10.57;;
16890;SDS011;8562;52.246;20.966;2022-11-23T15:44:15;17.27;;;10.60;;
16890;SDS011;8562;52.246;20.966;2022-11-23T15:46:45;18.73;;;11.47;;
16890;SDS011;8562;52.246;20.966;2022-11-23T15:49:13;17.57;;;10.13;;
16890;SDS011;8562;52.246;20.966;2022-11-23T15:51:40;19.50;;;10.10;;
16890;SDS011;8562;52.246;20.966;2022-11-23T15:54:17;22.50;;;10.47;;
16890;SDS011;8562;52.246;20.966;2022-11-23T15:56:44;27.17;;;12.50;;
16890;SDS011;8562;52.246;20.966;2022-11-23T16:01:50;16.37;;;8.10;;
16890;SDS011;8562;52.246;20.966;2022-11-23T16:04:27;19.37;;;7.47;;
16890;SDS011;8562;52.246;20.966;2022-11-23T16:06:54;15.90;;;8.70;;
16890;SDS011;8562;52.246;20.966;2022-11-23T16:12:00;21.07;;;9.07;;
16890;SDS011;8562;52.246;20.966;2022-11-23T16:14:26;22.40;;;8.37;;
16890;SDS011;8562;52.246;20.966;2022-11-23T16:17:02;16.13;;;6.77;;
16890;SDS011;8562;52.246;20.966;2022-11-23T16:19:29;18.23;;;10.00;;
16890;SDS011;8562;52.246;20.966;2022-11-23T16:22:00;21.57;;;9.27;;
16890;SDS011;8562;52.246;20.966;2022-11-23T16:24:26;26.00;;;10.67;;
16890;SDS011;8562;52.246;20.966;2022-11-23T16:26:53;25.93;;;12.33;;
16890;SDS011;8562;52.246;20.966;2022-11-23T16:29:20;16.07;;;9.47;;
16890;SDS011;8562;52.246;20.966;2022-11-23T16:31:54;22.13;;;9.40;;
16890;SDS011;8562;52.246;20.966;2022-11-23T16:34:20;22.57;;;9.60;;
16890;SDS011;8562;52.246;20.966;2022-11-23T16:36:47;20.30;;;10.00;;
16890;SDS011;8562;52.246;20.966;2022-11-23T16:39:13;25.00;;;10.70;;
16890;SDS011;8562;52.246;20.966;2022-11-23T16:41:39;18.83;;;10.37;;
16890;SDS011;8562;52.246;20.966;2022-11-23T16:44:05;31.77;;;12.73;;